sensor_id;sensor_type;location;lat;lon;timestamp;temperature;humidity
29731;DHT22;16639;51.488;0.152;2023-06-22T00:01:21;19.60;99.90
29731;DHT22;16639;51.488;0.152;2023-06-22T00:03:52;19.60;99.90
29731;DHT22;16639;51.488;0.152;2023-06-22T00:06:19;19.60;99.90
29731;DHT22;16639;51.488;0.152;2023-06-22T00:08:47;19.50;99.90
29731;DHT22;16639;51.488;0.152;2023-06-22T00:11:14;19.50;99.90
29731;DHT22;16639;51.488;0.152;2023-06-22T00:13:42;19.50;99.90
29731;DHT22;16639;51.488;0.152;2023-06-22T00:16:09;19.50;99.90
29731;DHT22;16639;51.488;0.152;2023-06-22T00:18:37;19.50;99.90
29731;DHT22;16639;51.488;0.152;2023-06-22T00:21:04;19.40;99.90
29731;DHT22;16639;51.488;0.152;2023-06-22T00:23:33;19.50;99.90
29731;DHT22;16639;51.488;0.152;2023-06-22T00:26:02;19.40;99.90
29731;DHT22;16639;51.488;0.152;2023-06-22T00:28:29;19.40;99.90
29731;DHT22;16639;51.488;0.152;2023-06-22T00:30:57;19.40;99.90
29731;DHT22;16639;51.488;0.152;2023-06-22T00:33:25;19.40;99.90
29731;DHT22;16639;51.488;0.152;2023-06-22T00:35:54;19.30;99.90
29731;DHT22;16639;51.488;0.152;2023-06-22T00:38:22;19.30;99.90
29731;DHT22;16639;51.488;0.152;2023-06-22T00:40:50;19.30;99.90
29731;DHT22;16639;51.488;0.152;2023-06-22T00:43:17;19.30;99.90
29731;DHT22;16639;51.488;0.152;2023-06-22T00:45:45;19.20;99.90
29731;DHT22;16639;51.488;0.152;2023-06-22T00:48:14;19.20;99.90
29731;DHT22;16639;51.488;0.152;2023-06-22T00:50:42;19.20;99.90
29731;DHT22;16639;51.488;0.152;2023-06-22T00:53:10;19.10;99.90
29731;DHT22;16639;51.488;0.152;2023-06-22T00:55:42;19.10;99.90
29731;DHT22;16639;51.488;0.152;2023-06-22T00:58:11;19.10;99.90
29731;DHT22;16639;51.488;0.152;2023-06-22T01:00:40;19.10;99.90
29731;DHT22;16639;51.488;0.152;2023-06-22T01:03:08;19.10;99.90
29731;DHT22;16639;51.488;0.152;2023-06-22T01:05:38;19.00;99.90
29731;DHT22;16639;51.488;0.152;2023-06-22T01:08:31;19.00;99.90
29731;DHT22;16639;51.488;0.152;2023-06-22T01:11:26;19.00;99.90
29731;DHT22;16639;51.488;0.152;2023-06-22T01:14:03;19.00;99.90
29731;DHT22;16639;51.488;0.152;2023-06-22T01:16:35;18.90;99.90
29731;DHT22;16639;51.488;0.152;2023-06-22T01:19:43;18.90;99.90
29731;DHT22;16639;51.488;0.152;2023-06-22T01:22:15;18.90;99.90
29731;DHT22;16639;51.488;0.152;2023-06-22T01:25:09;18.90;99.90
29731;DHT22;16639;51.488;0.152;2023-06-22T01:27:53;18.90;99.90
29731;DHT22;16639;51.488;0.152;2023-06-22T01:30:24;18.90;99.90
29731;DHT22;16639;51.488;0.152;2023-06-22T01:32:56;18.90;99.90
29731;DHT22;16639;51.488;0.152;2023-06-22T01:35:25;18.80;99.90
29731;DHT22;16639;51.488;0.152;2023-06-22T01:37:52;18.80;99.90
29731;DHT22;16639;51.488;0.152;2023-06-22T01:40:21;18.80;99.90
29731;DHT22;16639;51.488;0.152;2023-06-22T01:42:49;18.70;99.90
29731;DHT22;16639;51.488;0.152;2023-06-22T01:45:17;18.70;99.90
29731;DHT22;16639;51.488;0.152;2023-06-22T01:47:46;18.70;99.90
29731;DHT22;16639;51.488;0.152;2023-06-22T01:50:14;18.70;99.90
29731;DHT22;16639;51.488;0.152;2023-06-22T01:52:41;18.70;99.90
29731;DHT22;16639;51.488;0.152;2023-06-22T01:55:09;18.60;99.90
29731;DHT22;16639;51.488;0.152;2023-06-22T01:57:36;18.60;99.90
29731;DHT22;16639;51.488;0.152;2023-06-22T02:00:14;18.60;99.90
29731;DHT22;16639;51.488;0.152;2023-06-22T02:03:08;18.50;99.90
29731;DHT22;16639;51.488;0.152;2023-06-22T02:05:42;18.40;99.90
29731;DHT22;16639;51.488;0.152;2023-06-22T02:08:17;18.50;99.90
29731;DHT22;16639;51.488;0.152;2023-06-22T02:10:49;18.50;99.90
29731;DHT22;16639;51.488;0.152;2023-06-22T02:13:18;18.40;99.90
29731;DHT22;16639;51.488;0.152;2023-06-22T02:15:47;18.40;99.90
29731;DHT22;16639;51.488;0.152;2023-06-22T02:18:14;18.40;99.90
29731;DHT22;16639;51.488;0.152;2023-06-22T02:20:42;18.30;99.90
29731;DHT22;16639;51.488;0.152;2023-06-22T02:23:10;18.40;99.90
29731;DHT22;16639;51.488;0.152;2023-06-22T02:25:37;18.30;99.90
29731;DHT22;16639;51.488;0.152;2023-06-22T02:28:05;18.30;99.90
29731;DHT22;16639;51.488;0.152;2023-06-22T02:30:34;18.30;99.90
29731;DHT22;16639;51.488;0.152;2023-06-22T02:33:01;18.20;99.90
29731;DHT22;16639;51.488;0.152;2023-06-22T02:35:29;18.20;99.90
29731;DHT22;16639;51.488;0.152;2023-06-22T02:37:59;18.20;99.90
29731;DHT22;16639;51.488;0.152;2023-06-22T02:40:29;18.20;99.90
29731;DHT22;16639;51.488;0.152;2023-06-22T02:42:58;18.10;99.90
29731;DHT22;16639;51.488;0.152;2023-06-22T02:45:29;18.10;99.90
29731;DHT22;16639;51.488;0.152;2023-06-22T02:47:57;18.10;99.90
29731;DHT22;16639;51.488;0.152;2023-06-22T02:50:24;18.10;99.90
29731;DHT22;16639;51.488;0.152;2023-06-22T02:52:52;18.10;99.90
29731;DHT22;16639;51.488;0.152;2023-06-22T02:55:20;18.10;99.90
29731;DHT22;16639;51.488;0.152;2023-06-22T02:57:47;18.10;99.90
29731;DHT22;16639;51.488;0.152;2023-06-22T03:00:15;18.00;99.90
29731;DHT22;16639;51.488;0.152;2023-06-22T03:02:46;18.00;99.90
29731;DHT22;16639;51.488;0.152;2023-06-22T03:05:14;18.00;99.90
29731;DHT22;16639;51.488;0.152;2023-06-22T03:07:45;18.00;99.90
29731;DHT22;16639;51.488;0.152;2023-06-22T03:10:14;17.90;99.90
29731;DHT22;16639;51.488;0.152;2023-06-22T03:12:42;17.90;99.90
29731;DHT22;16639;51.488;0.152;2023-06-22T03:15:12;17.90;99.90
29731;DHT22;16639;51.488;0.152;2023-06-22T03:17:40;17.90;99.90
29731;DHT22;16639;51.488;0.152;2023-06-22T03:20:09;17.90;99.90
29731;DHT22;16639;51.488;0.152;2023-06-22T03:22:41;17.90;99.90
29731;DHT22;16639;51.488;0.152;2023-06-22T03:25:09;17.60;99.90
29731;DHT22;16639;51.488;0.152;2023-06-22T03:27:41;17.80;99.90
29731;DHT22;16639;51.488;0.152;2023-06-22T03:30:11;17.80;99.90
29731;DHT22;16639;51.488;0.152;2023-06-22T03:32:38;17.80;99.90
29731;DHT22;16639;51.488;0.152;2023-06-22T03:35:07;17.80;99.90
29731;DHT22;16639;51.488;0.152;2023-06-22T03:37:34;17.80;99.90
29731;DHT22;16639;51.488;0.152;2023-06-22T03:40:02;17.80;99.90
29731;DHT22;16639;51.488;0.152;2023-06-22T03:42:34;17.80;99.90
29731;DHT22;16639;51.488;0.152;2023-06-22T03:45:03;17.80;99.90
29731;DHT22;16639;51.488;0.152;2023-06-22T03:47:32;17.80;99.90
29731;DHT22;16639;51.488;0.152;2023-06-22T03:50:00;17.80;99.90
29731;DHT22;16639;51.488;0.152;2023-06-22T03:52:31;17.80;99.90
29731;DHT22;16639;51.488;0.152;2023-06-22T03:54:58;17.80;99.90
29731;DHT22;16639;51.488;0.152;2023-06-22T03:57:26;17.80;99.90
29731;DHT22;16639;51.488;0.152;2023-06-22T03:59:57;17.60;99.90
29731;DHT22;16639;51.488;0.152;2023-06-22T04:02:25;17.80;99.90
29731;DHT22;16639;51.488;0.152;2023-06-22T04:04:53;17.70;99.90
29731;DHT22;16639;51.488;0.152;2023-06-22T04:07:20;17.80;99.90
29731;DHT22;16639;51.488;0.152;2023-06-22T04:09:48;17.70;99.90
29731;DHT22;16639;51.488;0.152;2023-06-22T04:12:15;17.70;99.90
29731;DHT22;16639;51.488;0.152;2023-06-22T04:14:43;17.70;99.90
29731;DHT22;16639;51.488;0.152;2023-06-22T04:17:10;17.70;99.90
29731;DHT22;16639;51.488;0.152;2023-06-22T04:19:42;17.70;99.90
29731;DHT22;16639;51.488;0.152;2023-06-22T04:22:09;17.70;99.90
29731;DHT22;16639;51.488;0.152;2023-06-22T04:24:37;17.70;99.90
29731;DHT22;16639;51.488;0.152;2023-06-22T04:27:05;17.70;99.90
29731;DHT22;16639;51.488;0.152;2023-06-22T04:29:32;17.70;99.90
29731;DHT22;16639;51.488;0.152;2023-06-22T04:32:00;17.70;99.90
29731;DHT22;16639;51.488;0.152;2023-06-22T04:34:30;17.70;99.90
29731;DHT22;16639;51.488;0.152;2023-06-22T04:36:58;17.70;99.90
29731;DHT22;16639;51.488;0.152;2023-06-22T04:39:25;17.70;99.90
29731;DHT22;16639;51.488;0.152;2023-06-22T04:41:54;17.80;99.90
29731;DHT22;16639;51.488;0.152;2023-06-22T04:44:27;17.80;99.90
29731;DHT22;16639;51.488;0.152;2023-06-22T04:46:59;16.20;99.90
29731;DHT22;16639;51.488;0.152;2023-06-22T04:49:31;17.80;99.90
29731;DHT22;16639;51.488;0.152;2023-06-22T04:52:05;17.80;99.90
29731;DHT22;16639;51.488;0.152;2023-06-22T04:54:34;17.70;99.90
29731;DHT22;16639;51.488;0.152;2023-06-22T04:57:04;17.80;99.90
29731;DHT22;16639;51.488;0.152;2023-06-22T04:59:32;17.80;99.90
29731;DHT22;16639;51.488;0.152;2023-06-22T05:02:01;17.80;99.90
29731;DHT22;16639;51.488;0.152;2023-06-22T05:04:30;17.80;99.90
29731;DHT22;16639;51.488;0.152;2023-06-22T05:07:03;17.80;99.90
29731;DHT22;16639;51.488;0.152;2023-06-22T05:09:31;17.80;99.90
29731;DHT22;16639;51.488;0.152;2023-06-22T05:12:02;17.80;99.90
29731;DHT22;16639;51.488;0.152;2023-06-22T05:14:35;17.80;99.90
29731;DHT22;16639;51.488;0.152;2023-06-22T05:17:02;17.90;99.90
29731;DHT22;16639;51.488;0.152;2023-06-22T05:19:31;17.90;99.90
29731;DHT22;16639;51.488;0.152;2023-06-22T05:22:01;17.90;99.90
29731;DHT22;16639;51.488;0.152;2023-06-22T05:24:29;17.90;99.90
29731;DHT22;16639;51.488;0.152;2023-06-22T05:26:56;18.00;99.90
29731;DHT22;16639;51.488;0.152;2023-06-22T05:29:24;18.10;99.90
29731;DHT22;16639;51.488;0.152;2023-06-22T05:31:51;18.20;99.90
29731;DHT22;16639;51.488;0.152;2023-06-22T05:34:19;18.20;99.90
29731;DHT22;16639;51.488;0.152;2023-06-22T05:36:46;18.20;99.90
29731;DHT22;16639;51.488;0.152;2023-06-22T05:39:14;18.30;99.90
29731;DHT22;16639;51.488;0.152;2023-06-22T05:41:42;18.40;99.90
29731;DHT22;16639;51.488;0.152;2023-06-22T05:44:13;18.40;99.90
29731;DHT22;16639;51.488;0.152;2023-06-22T05:46:42;18.40;99.90
29731;DHT22;16639;51.488;0.152;2023-06-22T05:49:14;18.50;99.90
29731;DHT22;16639;51.488;0.152;2023-06-22T05:51:42;18.50;99.90
29731;DHT22;16639;51.488;0.152;2023-06-22T05:54:10;18.60;99.90
29731;DHT22;16639;51.488;0.152;2023-06-22T05:56:37;18.60;99.90
29731;DHT22;16639;51.488;0.152;2023-06-22T05:59:05;18.60;99.90
29731;DHT22;16639;51.488;0.152;2023-06-22T06:01:32;18.70;99.90
29731;DHT22;16639;51.488;0.152;2023-06-22T06:04:03;18.40;99.90
29731;DHT22;16639;51.488;0.152;2023-06-22T06:06:31;18.70;99.90
29731;DHT22;16639;51.488;0.152;2023-06-22T06:08:59;18.70;99.90
29731;DHT22;16639;51.488;0.152;2023-06-22T06:11:27;18.70;99.90
29731;DHT22;16639;51.488;0.152;2023-06-22T06:13:54;18.80;99.90
29731;DHT22;16639;51.488;0.152;2023-06-22T06:16:23;18.90;99.90
29731;DHT22;16639;51.488;0.152;2023-06-22T06:18:50;18.70;99.90
29731;DHT22;16639;51.488;0.152;2023-06-22T06:21:18;18.90;99.90
29731;DHT22;16639;51.488;0.152;2023-06-22T06:23:45;18.90;99.90
29731;DHT22;16639;51.488;0.152;2023-06-22T06:26:14;19.00;99.90
29731;DHT22;16639;51.488;0.152;2023-06-22T06:28:43;18.90;99.90
29731;DHT22;16639;51.488;0.152;2023-06-22T06:31:11;19.00;99.90
29731;DHT22;16639;51.488;0.152;2023-06-22T06:33:39;18.60;99.90
29731;DHT22;16639;51.488;0.152;2023-06-22T06:36:07;19.00;99.90
29731;DHT22;16639;51.488;0.152;2023-06-22T06:38:35;19.00;99.90
29731;DHT22;16639;51.488;0.152;2023-06-22T06:41:03;19.10;99.90
29731;DHT22;16639;51.488;0.152;2023-06-22T06:43:30;19.10;99.90
29731;DHT22;16639;51.488;0.152;2023-06-22T06:45:58;19.10;99.90
29731;DHT22;16639;51.488;0.152;2023-06-22T06:48:26;19.10;99.90
29731;DHT22;16639;51.488;0.152;2023-06-22T06:50:53;19.20;99.90
29731;DHT22;16639;51.488;0.152;2023-06-22T06:53:21;19.20;99.90
29731;DHT22;16639;51.488;0.152;2023-06-22T06:55:48;19.30;99.90
29731;DHT22;16639;51.488;0.152;2023-06-22T06:58:15;19.30;99.90
29731;DHT22;16639;51.488;0.152;2023-06-22T07:00:43;19.40;99.90
29731;DHT22;16639;51.488;0.152;2023-06-22T07:03:11;19.30;99.90
29731;DHT22;16639;51.488;0.152;2023-06-22T07:05:39;19.40;99.90
29731;DHT22;16639;51.488;0.152;2023-06-22T07:08:15;19.40;99.90
29731;DHT22;16639;51.488;0.152;2023-06-22T07:10:42;19.40;99.90
29731;DHT22;16639;51.488;0.152;2023-06-22T07:13:10;19.40;99.90
29731;DHT22;16639;51.488;0.152;2023-06-22T07:15:37;19.30;99.90
29731;DHT22;16639;51.488;0.152;2023-06-22T07:18:05;19.40;99.90
29731;DHT22;16639;51.488;0.152;2023-06-22T07:20:32;19.50;99.90
29731;DHT22;16639;51.488;0.152;2023-06-22T07:23:00;19.70;99.90
29731;DHT22;16639;51.488;0.152;2023-06-22T07:25:27;19.50;99.90
29731;DHT22;16639;51.488;0.152;2023-06-22T07:28:00;19.60;99.90
29731;DHT22;16639;51.488;0.152;2023-06-22T07:30:30;19.60;99.90
29731;DHT22;16639;51.488;0.152;2023-06-22T07:32:59;19.70;99.90
29731;DHT22;16639;51.488;0.152;2023-06-22T07:35:31;19.70;99.90
29731;DHT22;16639;51.488;0.152;2023-06-22T07:37:59;19.70;99.90
29731;DHT22;16639;51.488;0.152;2023-06-22T07:40:31;20.60;99.90
29731;DHT22;16639;51.488;0.152;2023-06-22T07:42:59;19.80;99.90
29731;DHT22;16639;51.488;0.152;2023-06-22T07:45:26;19.80;99.90
29731;DHT22;16639;51.488;0.152;2023-06-22T07:47:54;19.80;99.90
29731;DHT22;16639;51.488;0.152;2023-06-22T07:50:21;19.90;99.90
29731;DHT22;16639;51.488;0.152;2023-06-22T07:52:49;19.90;99.90
29731;DHT22;16639;51.488;0.152;2023-06-22T07:55:17;19.90;99.90
29731;DHT22;16639;51.488;0.152;2023-06-22T07:57:46;19.90;99.90
29731;DHT22;16639;51.488;0.152;2023-06-22T08:00:14;20.00;99.90
29731;DHT22;16639;51.488;0.152;2023-06-22T08:02:45;19.80;99.90
29731;DHT22;16639;51.488;0.152;2023-06-22T08:05:14;20.00;99.90
29731;DHT22;16639;51.488;0.152;2023-06-22T08:08:00;20.00;99.90
29731;DHT22;16639;51.488;0.152;2023-06-22T08:10:28;20.10;99.90
29731;DHT22;16639;51.488;0.152;2023-06-22T08:12:55;20.10;99.90
29731;DHT22;16639;51.488;0.152;2023-06-22T08:15:22;20.10;99.90
29731;DHT22;16639;51.488;0.152;2023-06-22T08:17:50;20.10;99.90
29731;DHT22;16639;51.488;0.152;2023-06-22T08:20:19;20.20;99.90
29731;DHT22;16639;51.488;0.152;2023-06-22T08:22:47;20.20;99.90
29731;DHT22;16639;51.488;0.152;2023-06-22T08:25:14;20.20;99.90
29731;DHT22;16639;51.488;0.152;2023-06-22T08:27:45;20.20;99.90
29731;DHT22;16639;51.488;0.152;2023-06-22T08:30:16;20.20;99.90
29731;DHT22;16639;51.488;0.152;2023-06-22T08:32:45;20.20;99.90
29731;DHT22;16639;51.488;0.152;2023-06-22T08:35:12;20.30;99.90
29731;DHT22;16639;51.488;0.152;2023-06-22T08:37:40;20.30;99.90
29731;DHT22;16639;51.488;0.152;2023-06-22T08:40:09;21.90;99.90
29731;DHT22;16639;51.488;0.152;2023-06-22T08:42:37;20.30;99.90
29731;DHT22;16639;51.488;0.152;2023-06-22T08:45:05;20.30;99.90
29731;DHT22;16639;51.488;0.152;2023-06-22T08:47:33;20.40;99.90
29731;DHT22;16639;51.488;0.152;2023-06-22T08:50:01;20.40;99.90
29731;DHT22;16639;51.488;0.152;2023-06-22T08:52:32;20.40;99.90
29731;DHT22;16639;51.488;0.152;2023-06-22T08:55:00;20.40;99.90
29731;DHT22;16639;51.488;0.152;2023-06-22T08:57:27;20.40;99.90
29731;DHT22;16639;51.488;0.152;2023-06-22T08:59:55;20.40;99.90
29731;DHT22;16639;51.488;0.152;2023-06-22T09:02:26;20.50;99.90
29731;DHT22;16639;51.488;0.152;2023-06-22T09:04:59;20.50;99.90
29731;DHT22;16639;51.488;0.152;2023-06-22T09:07:27;20.60;99.90
29731;DHT22;16639;51.488;0.152;2023-06-22T09:09:55;20.60;99.90
29731;DHT22;16639;51.488;0.152;2023-06-22T09:12:22;20.70;99.90
29731;DHT22;16639;51.488;0.152;2023-06-22T09:14:53;20.70;99.90
29731;DHT22;16639;51.488;0.152;2023-06-22T09:17:22;20.70;99.90
29731;DHT22;16639;51.488;0.152;2023-06-22T09:19:49;20.80;99.90
29731;DHT22;16639;51.488;0.152;2023-06-22T09:22:17;20.90;99.90
29731;DHT22;16639;51.488;0.152;2023-06-22T09:24:44;21.00;99.90
29731;DHT22;16639;51.488;0.152;2023-06-22T09:27:11;21.00;99.90
29731;DHT22;16639;51.488;0.152;2023-06-22T09:29:39;21.10;99.90
29731;DHT22;16639;51.488;0.152;2023-06-22T09:32:06;21.20;99.90
29731;DHT22;16639;51.488;0.152;2023-06-22T09:34:34;21.20;99.90
29731;DHT22;16639;51.488;0.152;2023-06-22T09:37:01;21.30;99.90
29731;DHT22;16639;51.488;0.152;2023-06-22T09:39:29;21.30;99.90
29731;DHT22;16639;51.488;0.152;2023-06-22T09:41:59;21.30;99.90
29731;DHT22;16639;51.488;0.152;2023-06-22T09:44:27;21.40;99.90
29731;DHT22;16639;51.488;0.152;2023-06-22T09:46:54;21.40;99.90
29731;DHT22;16639;51.488;0.152;2023-06-22T09:49:21;21.40;99.90
29731;DHT22;16639;51.488;0.152;2023-06-22T09:52:09;21.40;99.90
29731;DHT22;16639;51.488;0.152;2023-06-22T09:54:38;21.40;99.90
29731;DHT22;16639;51.488;0.152;2023-06-22T09:57:06;21.50;99.90
29731;DHT22;16639;51.488;0.152;2023-06-22T09:59:33;21.60;99.90
29731;DHT22;16639;51.488;0.152;2023-06-22T10:02:01;21.60;99.90
29731;DHT22;16639;51.488;0.152;2023-06-22T10:04:28;21.70;99.90
29731;DHT22;16639;51.488;0.152;2023-06-22T10:06:56;21.60;99.90
29731;DHT22;16639;51.488;0.152;2023-06-22T10:09:24;21.60;99.90
29731;DHT22;16639;51.488;0.152;2023-06-22T10:11:51;21.50;99.90
29731;DHT22;16639;51.488;0.152;2023-06-22T10:14:19;21.50;99.90
29731;DHT22;16639;51.488;0.152;2023-06-22T10:16:47;21.50;99.90
29731;DHT22;16639;51.488;0.152;2023-06-22T10:19:15;21.40;99.90
29731;DHT22;16639;51.488;0.152;2023-06-22T10:21:42;21.40;99.90
29731;DHT22;16639;51.488;0.152;2023-06-22T10:24:10;21.40;99.90
29731;DHT22;16639;51.488;0.152;2023-06-22T10:26:38;21.50;99.90
29731;DHT22;16639;51.488;0.152;2023-06-22T10:29:05;21.50;99.90
29731;DHT22;16639;51.488;0.152;2023-06-22T10:31:43;21.60;99.90
29731;DHT22;16639;51.488;0.152;2023-06-22T10:34:10;21.60;99.90
29731;DHT22;16639;51.488;0.152;2023-06-22T10:36:38;21.70;99.90
29731;DHT22;16639;51.488;0.152;2023-06-22T10:39:06;21.80;99.90
29731;DHT22;16639;51.488;0.152;2023-06-22T10:41:34;21.80;99.90
29731;DHT22;16639;51.488;0.152;2023-06-22T10:44:02;22.00;99.90
29731;DHT22;16639;51.488;0.152;2023-06-22T10:46:29;22.10;99.90
29731;DHT22;16639;51.488;0.152;2023-06-22T10:48:57;22.10;99.90
29731;DHT22;16639;51.488;0.152;2023-06-22T10:51:25;22.30;99.90
29731;DHT22;16639;51.488;0.152;2023-06-22T10:53:55;22.40;99.90
29731;DHT22;16639;51.488;0.152;2023-06-22T10:56:22;22.40;99.90
29731;DHT22;16639;51.488;0.152;2023-06-22T10:58:50;22.40;99.90
29731;DHT22;16639;51.488;0.152;2023-06-22T11:01:17;22.50;99.90
29731;DHT22;16639;51.488;0.152;2023-06-22T11:04:01;22.40;99.90
29731;DHT22;16639;51.488;0.152;2023-06-22T11:06:29;22.40;99.90
29731;DHT22;16639;51.488;0.152;2023-06-22T11:08:56;22.50;99.90
29731;DHT22;16639;51.488;0.152;2023-06-22T11:11:38;22.60;99.90
29731;DHT22;16639;51.488;0.152;2023-06-22T11:14:05;22.60;99.90
29731;DHT22;16639;51.488;0.152;2023-06-22T11:16:33;22.60;99.90
29731;DHT22;16639;51.488;0.152;2023-06-22T11:19:02;22.70;99.90
29731;DHT22;16639;51.488;0.152;2023-06-22T11:21:30;22.70;99.90
29731;DHT22;16639;51.488;0.152;2023-06-22T11:23:59;22.70;99.90
29731;DHT22;16639;51.488;0.152;2023-06-22T11:26:27;22.70;99.90
29731;DHT22;16639;51.488;0.152;2023-06-22T11:28:54;22.80;99.90
29731;DHT22;16639;51.488;0.152;2023-06-22T11:31:22;22.70;99.90
29731;DHT22;16639;51.488;0.152;2023-06-22T11:33:53;22.60;99.90
29731;DHT22;16639;51.488;0.152;2023-06-22T11:36:20;22.70;99.90
29731;DHT22;16639;51.488;0.152;2023-06-22T11:38:49;22.80;99.90
29731;DHT22;16639;51.488;0.152;2023-06-22T11:41:17;22.90;99.90
29731;DHT22;16639;51.488;0.152;2023-06-22T11:43:44;23.00;99.90
29731;DHT22;16639;51.488;0.152;2023-06-22T11:46:12;23.10;99.90
29731;DHT22;16639;51.488;0.152;2023-06-22T11:48:39;23.20;99.90
29731;DHT22;16639;51.488;0.152;2023-06-22T11:51:07;23.20;99.90
29731;DHT22;16639;51.488;0.152;2023-06-22T11:53:35;23.20;99.90
29731;DHT22;16639;51.488;0.152;2023-06-22T11:56:03;23.10;99.90
29731;DHT22;16639;51.488;0.152;2023-06-22T11:58:30;23.10;99.90
29731;DHT22;16639;51.488;0.152;2023-06-22T12:00:57;23.10;99.90
29731;DHT22;16639;51.488;0.152;2023-06-22T12:03:25;23.10;99.90
29731;DHT22;16639;51.488;0.152;2023-06-22T12:05:52;23.20;99.90
29731;DHT22;16639;51.488;0.152;2023-06-22T12:08:21;23.20;99.90
29731;DHT22;16639;51.488;0.152;2023-06-22T12:10:50;23.30;99.90
29731;DHT22;16639;51.488;0.152;2023-06-22T12:13:17;23.40;99.90
29731;DHT22;16639;51.488;0.152;2023-06-22T12:15:45;23.50;99.90
29731;DHT22;16639;51.488;0.152;2023-06-22T12:18:12;23.70;99.90
29731;DHT22;16639;51.488;0.152;2023-06-22T12:20:42;23.70;99.90
29731;DHT22;16639;51.488;0.152;2023-06-22T12:23:09;23.80;99.90
29731;DHT22;16639;51.488;0.152;2023-06-22T12:25:37;23.70;99.90
29731;DHT22;16639;51.488;0.152;2023-06-22T12:28:04;23.70;99.90
29731;DHT22;16639;51.488;0.152;2023-06-22T12:30:33;23.80;99.90
29731;DHT22;16639;51.488;0.152;2023-06-22T12:33:00;23.80;99.90
29731;DHT22;16639;51.488;0.152;2023-06-22T12:35:28;23.90;99.90
29731;DHT22;16639;51.488;0.152;2023-06-22T12:37:55;24.00;99.90
29731;DHT22;16639;51.488;0.152;2023-06-22T12:40:23;24.10;99.90
29731;DHT22;16639;51.488;0.152;2023-06-22T12:42:51;24.10;99.90
29731;DHT22;16639;51.488;0.152;2023-06-22T12:45:18;24.10;99.90
29731;DHT22;16639;51.488;0.152;2023-06-22T12:47:47;24.10;99.90
29731;DHT22;16639;51.488;0.152;2023-06-22T12:50:17;24.20;99.90
29731;DHT22;16639;51.488;0.152;2023-06-22T12:52:45;24.10;99.90
29731;DHT22;16639;51.488;0.152;2023-06-22T12:55:12;24.10;99.90
29731;DHT22;16639;51.488;0.152;2023-06-22T12:57:40;24.30;99.90
29731;DHT22;16639;51.488;0.152;2023-06-22T13:00:07;24.30;99.90
29731;DHT22;16639;51.488;0.152;2023-06-22T13:02:37;24.40;99.90
29731;DHT22;16639;51.488;0.152;2023-06-22T13:05:05;24.50;99.90
29731;DHT22;16639;51.488;0.152;2023-06-22T13:07:32;24.50;99.90
29731;DHT22;16639;51.488;0.152;2023-06-22T13:10:00;24.50;99.90
29731;DHT22;16639;51.488;0.152;2023-06-22T13:12:28;24.40;99.90
29731;DHT22;16639;51.488;0.152;2023-06-22T13:14:57;24.30;99.90
29731;DHT22;16639;51.488;0.152;2023-06-22T13:17:24;24.30;99.90
29731;DHT22;16639;51.488;0.152;2023-06-22T13:19:52;24.30;99.90
29731;DHT22;16639;51.488;0.152;2023-06-22T13:22:31;24.20;99.90
29731;DHT22;16639;51.488;0.152;2023-06-22T13:24:59;24.30;99.90
29731;DHT22;16639;51.488;0.152;2023-06-22T13:27:27;24.30;99.90
29731;DHT22;16639;51.488;0.152;2023-06-22T13:29:55;24.40;99.90
29731;DHT22;16639;51.488;0.152;2023-06-22T13:32:22;24.40;99.90
29731;DHT22;16639;51.488;0.152;2023-06-22T13:34:52;24.40;99.90
29731;DHT22;16639;51.488;0.152;2023-06-22T13:37:19;24.40;99.90
29731;DHT22;16639;51.488;0.152;2023-06-22T13:39:46;24.40;99.90
29731;DHT22;16639;51.488;0.152;2023-06-22T13:42:14;24.50;99.90
29731;DHT22;16639;51.488;0.152;2023-06-22T13:44:41;24.40;99.90
29731;DHT22;16639;51.488;0.152;2023-06-22T13:47:09;24.40;99.90
29731;DHT22;16639;51.488;0.152;2023-06-22T13:49:38;24.30;99.90
29731;DHT22;16639;51.488;0.152;2023-06-22T13:52:19;24.30;99.90
29731;DHT22;16639;51.488;0.152;2023-06-22T13:54:46;24.40;99.90
29731;DHT22;16639;51.488;0.152;2023-06-22T13:57:14;24.40;99.90
29731;DHT22;16639;51.488;0.152;2023-06-22T13:59:41;24.50;99.90
29731;DHT22;16639;51.488;0.152;2023-06-22T14:02:09;24.60;99.90
29731;DHT22;16639;51.488;0.152;2023-06-22T14:04:36;24.60;99.90
29731;DHT22;16639;51.488;0.152;2023-06-22T14:07:04;24.60;99.90
29731;DHT22;16639;51.488;0.152;2023-06-22T14:09:31;24.60;99.90
29731;DHT22;16639;51.488;0.152;2023-06-22T14:12:03;24.70;99.90
29731;DHT22;16639;51.488;0.152;2023-06-22T14:14:32;24.80;99.90
29731;DHT22;16639;51.488;0.152;2023-06-22T14:17:00;24.80;99.90
29731;DHT22;16639;51.488;0.152;2023-06-22T14:19:27;24.80;99.90
29731;DHT22;16639;51.488;0.152;2023-06-22T14:21:55;24.70;99.90
29731;DHT22;16639;51.488;0.152;2023-06-22T14:24:24;24.80;99.90
29731;DHT22;16639;51.488;0.152;2023-06-22T14:26:55;24.80;99.90
29731;DHT22;16639;51.488;0.152;2023-06-22T14:29:22;24.80;99.90
29731;DHT22;16639;51.488;0.152;2023-06-22T14:31:50;24.90;99.90
29731;DHT22;16639;51.488;0.152;2023-06-22T14:34:17;25.30;99.90
29731;DHT22;16639;51.488;0.152;2023-06-22T14:36:45;25.10;99.90
29731;DHT22;16639;51.488;0.152;2023-06-22T14:39:12;25.10;99.90
29731;DHT22;16639;51.488;0.152;2023-06-22T14:41:39;25.10;99.90
29731;DHT22;16639;51.488;0.152;2023-06-22T14:44:07;25.20;99.90
29731;DHT22;16639;51.488;0.152;2023-06-22T14:46:35;25.20;99.90
29731;DHT22;16639;51.488;0.152;2023-06-22T14:49:02;25.20;99.90
29731;DHT22;16639;51.488;0.152;2023-06-22T14:51:30;25.20;99.90
29731;DHT22;16639;51.488;0.152;2023-06-22T14:53:57;25.30;99.90
29731;DHT22;16639;51.488;0.152;2023-06-22T14:56:24;25.40;99.90
29731;DHT22;16639;51.488;0.152;2023-06-22T14:58:52;25.40;99.90
29731;DHT22;16639;51.488;0.152;2023-06-22T15:01:19;25.40;99.90
29731;DHT22;16639;51.488;0.152;2023-06-22T15:03:47;25.40;99.90
29731;DHT22;16639;51.488;0.152;2023-06-22T15:06:14;25.40;99.90
29731;DHT22;16639;51.488;0.152;2023-06-22T15:08:43;24.90;99.90
29731;DHT22;16639;51.488;0.152;2023-06-22T15:11:11;25.30;99.90
29731;DHT22;16639;51.488;0.152;2023-06-22T15:13:40;25.30;99.90
29731;DHT22;16639;51.488;0.152;2023-06-22T15:16:08;25.30;99.90
29731;DHT22;16639;51.488;0.152;2023-06-22T15:18:36;25.30;99.90
29731;DHT22;16639;51.488;0.152;2023-06-22T15:21:04;25.40;99.90
29731;DHT22;16639;51.488;0.152;2023-06-22T15:23:32;25.40;99.90
29731;DHT22;16639;51.488;0.152;2023-06-22T15:26:03;25.40;99.90
29731;DHT22;16639;51.488;0.152;2023-06-22T15:28:32;25.40;99.90
29731;DHT22;16639;51.488;0.152;2023-06-22T15:31:02;25.60;99.90
29731;DHT22;16639;51.488;0.152;2023-06-22T15:33:30;25.70;99.90
29731;DHT22;16639;51.488;0.152;2023-06-22T15:35:59;25.60;99.90
29731;DHT22;16639;51.488;0.152;2023-06-22T15:38:32;25.50;99.90
29731;DHT22;16639;51.488;0.152;2023-06-22T15:41:00;25.50;99.90